الصفحة الرئيسية
METAR-TAF:

METAR-TAF

مطار :

ياروسلافل, روسيا

دائرة عرض: 57-33-38N, خط طول: 040-09-27E, ارتفاع: 87 متر

مراقبة الطقس الحالي

تاريخ ووقت الإصدار 27 دقيقة قبل الساعة 15:00UTC
ريح 4 عقدة من الشمال/الشمال الشرقي
درجة الحرارة 24°درجة مئوية
الرطوبة 61%
ضغط 1017 hPa
الرؤية 10 كم أو أكثر
الغيوم لا تقل 1500 م ولا وجود لمزنة ركامية السحاب الأسود

METAR: UUDL 161500Z 03002MPS CAVOK 24/16 Q1017 R23/010060 NOSIG RMK QFE754

زمن: 18:27 (15:27 UTC)

توقعات

تاريخ ووقت الإصدار 1ساعة و 27 دقيقة قبل الساعة 14:00UTC
التوقعات صالحة من16 الساعة 15 UTC إلى 17 الساعة 15 UTC
ريح 6 عقدة من الشمال الشرقي
الرؤية 10 كم أو أكثر
غيوم متفرقة على ارتفاع 4000 قدم
مؤقت
من 17 الساعة 09 UTC إلى 17 الساعة 15 UTC
ريح 14 عقدة من الجنوب/الجنوب الشرقي تتزايد حتى 23 عقدة

TAF: UUDL 161400Z 1615/1715 04003MPS 9999 SCT040 TX25/1712Z TN15/1701Z TEMPO 1709/1715 15007G12MPS

أرصاد الطقس والتوقعات من أكثر من 4000 مطار (تقارير الطقس للمطار METAR والتنبؤ بالطقس بالمطارTAF).

المحطات المتاحة هي النقط الصفراء والحمراء على الخريطة.

حرك المؤشر فوق النقطة لمعرفة اسم المحطة.

ثم انقر لمعرفة أرصاد وتوقعات الطقس.

لتغيير الخارطة: اضغط على الأزرار الخضراء مع رمز الصليب الأسود للتكبير. على الزر الأخضر مع شرطة للتصغير، أو على الأسهم الخضراء للخرائط المجاورة.


METAR-TAF: